Time;durP1;ratioP1;P1;durP2;ratioP2;P2;SDS_P1;SDS_P2;PMS_P1;PMS_P2;Temp;Humidity;BMP_temperature;BMP_pressure;BME280_temperature;BME280_humidity;BME280_pressure;Samples;Min_cycle;Max_cycle;Signal;HPM_P1;HPM_P2
2022/07/18 00:01:55;;;;;;;;;;;16.80;99.90;;;;;;5116522;27;19924;-78
2022/07/18 00:04:20;;;;;;;;;;;16.80;99.90;;;;;;5116607;27;19930;-78
2022/07/18 00:06:46;;;;;;;;;;;16.80;99.90;;;;;;5099908;27;19924;-78
2022/07/18 00:09:11;;;;;;;;;;;16.80;99.90;;;;;;5133774;27;19974;-78
2022/07/18 00:11:37;;;;;;;;;;;16.80;99.90;;;;;;5116669;27;19968;-78
2022/07/18 00:14:03;;;;;;;;;;;16.80;99.90;;;;;;5115930;27;20018;-78
2022/07/18 00:16:29;;;;;;;;;;;16.80;99.90;;;;;;5116201;27;20382;-78
2022/07/18 00:18:54;;;;;;;;;;;16.80;99.90;;;;;;5133741;27;20342;-78
2022/07/18 00:21:20;;;;;;;;;;;16.80;99.90;;;;;;5133490;27;19923;-78
2022/07/18 00:23:46;;;;;;;;;;;16.80;99.90;;;;;;5116393;27;20010;-79
2022/07/18 00:26:11;;;;;;;;;;;16.80;99.90;;;;;;5099290;27;20359;-78
2022/07/18 00:28:37;;;;;;;;;;;16.80;99.90;;;;;;5116488;28;19923;-78
2022/07/18 00:31:02;;;;;;;;;;;16.70;99.90;;;;;;5115923;27;19924;-78
2022/07/18 00:33:28;;;;;;;;;;;16.70;99.90;;;;;;5099543;28;19927;-78
2022/07/18 00:35:54;;;;;;;;;;;16.70;99.90;;;;;;5116401;28;19923;-78
2022/07/18 00:38:19;;;;;;;;;;;16.70;99.90;;;;;;5133216;28;19927;-78
2022/07/18 00:40:45;;;;;;;;;;;16.70;99.90;;;;;;5099331;28;19930;-78
2022/07/18 00:43:14;;;;;;;;;;;16.70;99.90;;;;;;5116109;28;19946;-78
2022/07/18 00:45:43;;;;;;;;;;;16.80;99.90;;;;;;5116025;28;19923;-78
2022/07/18 00:48:09;;;;;;;;;;;16.70;99.90;;;;;;5133177;28;19931;-78
2022/07/18 00:50:34;;;;;;;;;;;16.70;99.90;;;;;;5099276;28;20360;-78
2022/07/18 00:53:00;;;;;;;;;;;16.60;99.90;;;;;;5099237;28;19923;-78
2022/07/18 00:55:25;;;;;;;;;;;16.60;99.90;;;;;;5116086;28;20216;-78
2022/07/18 00:57:51;;;;;;;;;;;16.60;99.90;;;;;;5099286;28;19969;-78
2022/07/18 01:03:01;;;;;;;;;;;16.60;99.90;;;;;;5118791;28;19947;-78
2022/07/18 01:05:26;;;;;;;;;;;16.60;99.90;;;;;;5115543;28;20268;-78
2022/07/18 01:07:52;;;;;;;;;;;16.60;99.90;;;;;;5116059;28;19968;-78
2022/07/18 01:10:18;;;;;;;;;;;16.60;99.90;;;;;;5115536;28;19927;-78
2022/07/18 01:12:44;;;;;;;;;;;16.50;99.90;;;;;;5132785;28;19924;-78
2022/07/18 01:15:10;;;;;;;;;;;16.50;99.90;;;;;;5132920;28;20430;-78
2022/07/18 01:17:35;;;;;;;;;;;16.50;99.90;;;;;;5133124;28;19924;-78
2022/07/18 01:20:02;;;;;;;;;;;16.40;99.90;;;;;;5132832;28;20053;-78
2022/07/18 01:22:28;;;;;;;;;;;16.40;99.90;;;;;;5132856;28;20010;-77
2022/07/18 01:24:53;;;;;;;;;;;16.40;99.90;;;;;;5115709;28;20014;-78
2022/07/18 01:27:20;;;;;;;;;;;16.40;99.90;;;;;;5115897;27;20351;-78
2022/07/18 01:29:46;;;;;;;;;;;16.40;99.90;;;;;;5136885;27;19953;-78
2022/07/18 01:32:13;;;;;;;;;;;16.30;99.90;;;;;;5119459;27;19992;-78
2022/07/18 01:34:39;;;;;;;;;;;16.30;99.90;;;;;;5119659;27;19933;-78
2022/07/18 01:37:05;;;;;;;;;;;16.30;99.90;;;;;;5136726;27;19985;-77
2022/07/18 01:39:31;;;;;;;;;;;16.20;99.90;;;;;;5136642;27;19978;-78
2022/07/18 01:41:57;;;;;;;;;;;16.10;99.90;;;;;;5102603;27;19974;-78
2022/07/18 01:44:22;;;;;;;;;;;16.00;99.90;;;;;;5136297;27;19982;-78
2022/07/18 01:46:48;;;;;;;;;;;15.90;99.90;;;;;;5136521;27;19966;-78
2022/07/18 01:49:14;;;;;;;;;;;15.90;99.90;;;;;;5136450;27;19929;-78
2022/07/18 01:51:39;;;;;;;;;;;15.80;99.90;;;;;;5136481;27;19923;-78
2022/07/18 01:54:05;;;;;;;;;;;15.70;99.90;;;;;;5119283;27;19930;-77
2022/07/18 01:56:30;;;;;;;;;;;15.70;99.90;;;;;;5118684;27;19931;-77
2022/07/18 01:58:56;;;;;;;;;;;15.60;99.90;;;;;;5136315;27;19945;-78
2022/07/18 02:01:22;;;;;;;;;;;15.60;99.90;;;;;;5118626;27;19923;-77
2022/07/18 02:03:47;;;;;;;;;;;15.60;99.90;;;;;;5118998;27;19947;-78
2022/07/18 02:06:13;;;;;;;;;;;15.60;99.90;;;;;;5118517;27;19961;-78
2022/07/18 02:08:39;;;;;;;;;;;15.60;99.90;;;;;;5118985;27;19928;-78
2022/07/18 02:11:04;;;;;;;;;;;15.60;99.90;;;;;;5135793;27;19928;-78
2022/07/18 02:13:30;;;;;;;;;;;15.50;99.90;;;;;;5118391;27;19923;-77
2022/07/18 02:15:56;;;;;;;;;;;15.50;99.90;;;;;;5118818;27;20263;-78
2022/07/18 02:18:21;;;;;;;;;;;15.50;99.90;;;;;;5135715;27;19923;-78
2022/07/18 02:20:47;;;;;;;;;;;15.60;99.90;;;;;;5118751;27;20341;-78
2022/07/18 02:23:12;;;;;;;;;;;15.70;99.90;;;;;;5118181;27;19923;-78
2022/07/18 02:25:38;;;;;;;;;;;15.70;99.90;;;;;;5135490;27;19981;-78
2022/07/18 02:28:04;;;;;;;;;;;15.80;99.90;;;;;;5118625;27;19923;-78
2022/07/18 02:30:30;;;;;;;;;;;15.80;99.90;;;;;;5135574;27;19923;-78
2022/07/18 02:32:56;;;;;;;;;;;15.80;99.90;;;;;;5118568;27;19930;-78
2022/07/18 02:35:21;;;;;;;;;;;15.90;99.90;;;;;;5101394;27;19923;-78
2022/07/18 02:37:47;;;;;;;;;;;15.90;99.90;;;;;;5101512;27;19924;-78
2022/07/18 02:40:13;;;;;;;;;;;15.90;99.90;;;;;;5134791;27;19923;-84
2022/07/18 02:42:38;;;;;;;;;;;15.90;99.90;;;;;;5118513;27;19986;-78
2022/07/18 02:45:04;;;;;;;;;;;16.00;99.90;;;;;;5103333;27;19924;-76
2022/07/18 02:47:30;;;;;;;;;;;16.00;99.90;;;;;;5119816;27;19923;-78
2022/07/18 02:49:55;;;;;;;;;;;16.00;99.90;;;;;;5135345;27;19931;-78
2022/07/18 02:52:21;;;;;;;;;;;16.00;99.90;;;;;;5135114;27;19923;-77
2022/07/18 02:54:47;;;;;;;;;;;16.00;99.90;;;;;;5135219;27;19923;-78
2022/07/18 02:57:12;;;;;;;;;;;16.00;99.90;;;;;;5118071;27;20042;-78
2022/07/18 02:59:38;;;;;;;;;;;15.90;99.90;;;;;;5117730;27;19931;-78
2022/07/18 03:02:03;;;;;;;;;;;16.00;99.90;;;;;;5117953;27;19930;-78
2022/07/18 03:04:29;;;;;;;;;;;16.00;99.90;;;;;;5134715;27;19989;-78
2022/07/18 03:06:55;;;;;;;;;;;16.00;99.90;;;;;;5117551;27;19923;-78
2022/07/18 03:09:20;;;;;;;;;;;16.00;99.90;;;;;;5100698;27;19923;-78
2022/07/18 03:11:46;;;;;;;;;;;16.10;99.90;;;;;;5134902;27;19930;-79
2022/07/18 03:14:12;;;;;;;;;;;16.10;99.90;;;;;;5116925;27;20362;-78
2022/07/18 03:16:37;;;;;;;;;;;16.10;99.90;;;;;;5134318;27;19924;-77
2022/07/18 03:19:03;;;;;;;;;;;16.00;99.90;;;;;;5100693;27;19923;-78
2022/07/18 03:21:29;;;;;;;;;;;16.00;99.90;;;;;;5117399;27;19935;-78
2022/07/18 03:23:55;;;;;;;;;;;16.00;99.90;;;;;;5117430;27;20046;-78
2022/07/18 03:26:21;;;;;;;;;;;15.90;99.90;;;;;;5100225;27;19992;-78
2022/07/18 03:28:46;;;;;;;;;;;15.90;99.90;;;;;;5134560;27;19924;-78
2022/07/18 03:31:12;;;;;;;;;;;15.90;99.90;;;;;;5117455;27;20026;-78
2022/07/18 03:33:38;;;;;;;;;;;15.90;99.90;;;;;;5134289;27;19924;-78
2022/07/18 03:36:03;;;;;;;;;;;15.90;99.90;;;;;;5117280;27;19923;-78
2022/07/18 03:38:29;;;;;;;;;;;15.90;99.90;;;;;;5100116;27;19923;-78
2022/07/18 03:40:55;;;;;;;;;;;15.80;99.90;;;;;;5134417;27;20027;-78
2022/07/18 03:43:20;;;;;;;;;;;15.80;99.90;;;;;;5116940;27;19923;-78
2022/07/18 03:45:46;;;;;;;;;;;15.80;99.90;;;;;;5133875;27;19972;-78
2022/07/18 03:48:12;;;;;;;;;;;15.80;99.90;;;;;;5117124;27;19923;-78
2022/07/18 03:50:37;;;;;;;;;;;15.70;99.90;;;;;;5116549;27;19972;-78
2022/07/18 03:53:03;;;;;;;;;;;15.70;99.90;;;;;;5133479;27;20018;-78
2022/07/18 03:55:28;;;;;;;;;;;15.80;99.90;;;;;;5116706;27;19993;-78
2022/07/18 03:57:54;;;;;;;;;;;15.80;99.90;;;;;;5116896;27;19971;-78
2022/07/18 04:00:20;;;;;;;;;;;15.80;99.90;;;;;;5116584;27;19931;-78
2022/07/18 04:02:46;;;;;;;;;;;15.90;99.90;;;;;;5133751;27;19928;-79
2022/07/18 04:05:13;;;;;;;;;;;15.90;99.90;;;;;;5116749;27;20295;-77
2022/07/18 04:07:39;;;;;;;;;;;15.90;99.90;;;;;;5116498;27;19935;-78
2022/07/18 04:10:05;;;;;;;;;;;15.90;99.90;;;;;;5099775;27;19923;-77
2022/07/18 04:12:31;;;;;;;;;;;15.90;99.90;;;;;;5116001;27;19931;-78
2022/07/18 04:14:57;;;;;;;;;;;15.90;99.90;;;;;;5133789;27;19923;-78
2022/07/18 04:17:23;;;;;;;;;;;15.90;99.90;;;;;;5133733;27;20408;-78
2022/07/18 04:19:48;;;;;;;;;;;16.00;99.90;;;;;;5116592;27;20018;-78
2022/07/18 04:22:14;;;;;;;;;;;15.90;99.90;;;;;;5133750;27;19923;-78
2022/07/18 04:24:39;;;;;;;;;;;15.90;99.90;;;;;;5116244;27;20002;-78
2022/07/18 04:27:05;;;;;;;;;;;16.00;99.90;;;;;;5116500;28;19923;-78
2022/07/18 04:29:31;;;;;;;;;;;16.00;99.90;;;;;;5133466;27;19924;-78
2022/07/18 04:31:57;;;;;;;;;;;16.00;99.90;;;;;;5116377;27;19923;-78
2022/07/18 04:34:23;;;;;;;;;;;16.00;99.90;;;;;;5099394;28;19946;-78
2022/07/18 04:36:48;;;;;;;;;;;16.00;99.90;;;;;;5133238;28;19934;-78
2022/07/18 04:39:14;;;;;;;;;;;16.00;99.90;;;;;;5116323;28;19924;-78
2022/07/18 04:41:39;;;;;;;;;;;16.10;99.90;;;;;;5133219;28;20244;-78
2022/07/18 04:44:05;;;;;;;;;;;16.00;99.90;;;;;;5115850;28;19930;-78
2022/07/18 04:46:30;;;;;;;;;;;16.10;99.90;;;;;;5099240;28;19963;-78
2022/07/18 04:48:56;;;;;;;;;;;16.10;99.90;;;;;;5116377;28;20412;-78
2022/07/18 04:51:21;;;;;;;;;;;16.10;99.90;;;;;;5116196;28;19931;-78
2022/07/18 04:53:48;;;;;;;;;;;16.10;99.90;;;;;;5133246;28;19935;-78
2022/07/18 04:56:13;;;;;;;;;;;16.10;99.90;;;;;;5116278;28;19927;-78
2022/07/18 04:58:39;;;;;;;;;;;16.20;99.90;;;;;;5099046;28;19930;-78
2022/07/18 05:01:04;;;;;;;;;;;16.20;99.90;;;;;;5116180;28;19923;-77
2022/07/18 05:03:30;;;;;;;;;;;16.30;99.90;;;;;;5118285;27;19923;-78
2022/07/18 05:05:55;;;;;;;;;;;16.30;99.90;;;;;;5119831;27;20406;-78
2022/07/18 05:08:21;;;;;;;;;;;16.30;99.90;;;;;;5120228;27;20007;-78
2022/07/18 05:10:46;;;;;;;;;;;16.40;99.90;;;;;;5119986;27;19923;-78
2022/07/18 05:13:12;;;;;;;;;;;16.50;99.90;;;;;;5102950;27;19923;-78
2022/07/18 05:15:38;;;;;;;;;;;16.50;99.90;;;;;;5119975;27;20436;-78
2022/07/18 05:18:03;;;;;;;;;;;16.50;99.90;;;;;;5120047;27;20372;-78
2022/07/18 05:20:29;;;;;;;;;;;16.50;99.90;;;;;;5137109;27;20003;-78
2022/07/18 05:22:54;;;;;;;;;;;16.60;99.90;;;;;;5136856;27;19923;-78
2022/07/18 05:25:22;;;;;;;;;;;16.60;99.90;;;;;;5136963;27;19966;-78
2022/07/18 05:27:48;;;;;;;;;;;16.60;99.90;;;;;;5136735;27;19930;-78
2022/07/18 05:30:14;;;;;;;;;;;16.70;99.90;;;;;;5119661;27;19924;-78
2022/07/18 05:32:40;;;;;;;;;;;16.70;99.90;;;;;;5136722;27;19927;-78
2022/07/18 05:35:06;;;;;;;;;;;16.70;99.90;;;;;;5136854;27;19924;-78
2022/07/18 05:37:32;;;;;;;;;;;16.80;99.90;;;;;;5119637;27;19930;-78
2022/07/18 05:39:57;;;;;;;;;;;16.80;99.90;;;;;;5102565;27;20323;-78
2022/07/18 05:42:23;;;;;;;;;;;16.90;99.90;;;;;;5119545;27;19924;-78
2022/07/18 05:44:48;;;;;;;;;;;17.00;99.90;;;;;;5119102;27;20394;-78
2022/07/18 05:47:14;;;;;;;;;;;17.00;99.90;;;;;;5136563;27;19924;-78
2022/07/18 05:49:40;;;;;;;;;;;17.00;99.90;;;;;;5119255;27;19927;-78
2022/07/18 05:52:06;;;;;;;;;;;17.00;99.90;;;;;;5136445;27;19989;-78
2022/07/18 05:54:32;;;;;;;;;;;17.10;99.90;;;;;;5119299;27;19927;-78
2022/07/18 05:56:57;;;;;;;;;;;17.20;99.90;;;;;;5136159;27;20370;-78
2022/07/18 05:59:23;;;;;;;;;;;17.30;99.90;;;;;;5136360;27;19984;-78
2022/07/18 06:01:48;;;;;;;;;;;17.30;99.90;;;;;;5119003;27;20355;-78
2022/07/18 06:04:14;;;;;;;;;;;17.40;99.90;;;;;;5136078;27;20014;-78
2022/07/18 06:06:40;;;;;;;;;;;17.40;99.90;;;;;;5135741;27;20319;-78
2022/07/18 06:09:06;;;;;;;;;;;17.60;99.90;;;;;;5118964;27;19941;-78
2022/07/18 06:11:31;;;;;;;;;;;17.60;99.90;;;;;;5118973;27;19923;-78
2022/07/18 06:13:57;;;;;;;;;;;17.70;99.90;;;;;;5117617;28;19931;-78
2022/07/18 06:16:23;;;;;;;;;;;17.80;99.90;;;;;;5135777;27;19923;-78
2022/07/18 06:18:48;;;;;;;;;;;17.90;99.90;;;;;;5135795;27;19976;-78
2022/07/18 06:21:14;;;;;;;;;;;18.00;99.90;;;;;;5118742;27;19968;-78
2022/07/18 06:23:40;;;;;;;;;;;18.20;99.90;;;;;;5135629;27;19923;-78
2022/07/18 06:26:05;;;;;;;;;;;18.30;99.90;;;;;;5101374;27;19931;-78
2022/07/18 06:28:31;;;;;;;;;;;18.50;99.90;;;;;;5101864;27;19923;-78
2022/07/18 06:30:57;;;;;;;;;;;18.60;99.90;;;;;;5135572;27;19930;-78
2022/07/18 06:33:23;;;;;;;;;;;18.80;99.90;;;;;;5118599;27;20283;-78
2022/07/18 06:35:49;;;;;;;;;;;18.90;99.90;;;;;;5135469;27;19934;-78
2022/07/18 06:38:15;;;;;;;;;;;19.00;99.90;;;;;;5118471;27;20010;-78
2022/07/18 06:40:41;;;;;;;;;;;19.00;99.90;;;;;;5135429;27;19923;-79
2022/07/18 06:43:06;;;;;;;;;;;19.10;99.90;;;;;;5118417;27;20374;-78
2022/07/18 06:45:32;;;;;;;;;;;19.10;99.90;;;;;;5135317;27;19934;-78
2022/07/18 06:47:58;;;;;;;;;;;19.20;99.90;;;;;;5135295;27;19989;-78
2022/07/18 06:50:24;;;;;;;;;;;19.20;99.90;;;;;;5118334;27;19935;-78
2022/07/18 06:52:49;;;;;;;;;;;19.20;99.90;;;;;;5117828;27;20011;-79
2022/07/18 06:55:15;;;;;;;;;;;19.20;99.90;;;;;;5101130;27;20010;-78
2022/07/18 06:57:41;;;;;;;;;;;19.20;99.90;;;;;;5117790;27;19969;-84
2022/07/18 07:00:08;;;;;;;;;;;19.20;99.90;;;;;;5135108;27;20366;-78
2022/07/18 07:02:34;;;;;;;;;;;19.20;99.90;;;;;;5117915;27;19952;-78
2022/07/18 07:05:00;;;;;;;;;;;19.20;99.90;;;;;;5134636;27;19932;-78
2022/07/18 07:07:25;;;;;;;;;;;19.30;99.90;;;;;;5135055;27;19930;-78
2022/07/18 07:09:51;;;;;;;;;;;19.30;99.90;;;;;;5117670;27;19924;-78
2022/07/18 07:12:17;;;;;;;;;;;19.40;99.90;;;;;;5100343;27;19993;-78
2022/07/18 07:14:42;;;;;;;;;;;19.50;99.90;;;;;;5117787;27;20275;-78
2022/07/18 07:17:08;;;;;;;;;;;19.50;99.90;;;;;;5117300;27;20021;-78
2022/07/18 07:19:34;;;;;;;;;;;19.60;99.90;;;;;;5134861;27;20041;-78
2022/07/18 07:21:59;;;;;;;;;;;19.70;99.90;;;;;;5134496;27;20060;-78
2022/07/18 07:24:25;;;;;;;;;;;19.70;99.90;;;;;;5134775;27;19924;-78
2022/07/18 07:26:50;;;;;;;;;;;19.80;99.90;;;;;;5134317;27;20430;-78
2022/07/18 07:29:16;;;;;;;;;;;19.90;99.90;;;;;;5100514;27;20018;-78
2022/07/18 07:31:42;;;;;;;;;;;20.10;99.90;;;;;;5134536;27;19930;-78
2022/07/18 07:34:08;;;;;;;;;;;20.30;99.90;;;;;;5134290;27;19983;-77
2022/07/18 07:36:34;;;;;;;;;;;20.50;99.90;;;;;;5117357;27;19978;-78
2022/07/18 07:38:59;;;;;;;;;;;20.70;99.90;;;;;;5134379;27;19931;-78
2022/07/18 07:41:25;;;;;;;;;;;20.70;99.90;;;;;;5117381;27;20340;-78
2022/07/18 07:43:50;;;;;;;;;;;20.80;99.90;;;;;;5134032;27;19930;-78
2022/07/18 07:46:16;;;;;;;;;;;20.90;99.90;;;;;;5117126;27;19923;-78
2022/07/18 07:48:43;;;;;;;;;;;21.00;99.90;;;;;;5117075;27;19923;-78
2022/07/18 07:51:08;;;;;;;;;;;21.10;99.90;;;;;;5116878;27;19986;-78
2022/07/18 07:53:34;;;;;;;;;;;21.20;99.90;;;;;;5134107;27;19975;-78
2022/07/18 07:56:00;;;;;;;;;;;21.30;99.90;;;;;;5133963;27;19979;-78
2022/07/18 07:58:25;;;;;;;;;;;21.40;99.90;;;;;;5100199;27;19923;-78
2022/07/18 08:00:51;;;;;;;;;;;21.50;99.90;;;;;;5116775;27;20274;-78
2022/07/18 08:03:16;;;;;;;;;;;21.60;99.90;;;;;;5116511;27;19952;-78
2022/07/18 08:05:46;;;;;;;;;;;21.60;99.90;;;;;;5116470;27;19993;-78
2022/07/18 08:08:12;;;;;;;;;;;21.70;99.90;;;;;;5099615;27;20026;-78
2022/07/18 08:10:37;;;;;;;;;;;21.90;99.90;;;;;;5116806;27;20039;-78
2022/07/18 08:13:03;;;;;;;;;;;21.90;99.90;;;;;;5133122;27;19923;-78
2022/07/18 08:15:28;;;;;;;;;;;22.00;99.90;;;;;;5133551;27;19933;-78
2022/07/18 08:17:54;;;;;;;;;;;22.10;99.90;;;;;;5116390;27;19972;-78
2022/07/18 08:20:20;;;;;;;;;;;22.20;99.90;;;;;;5116654;27;19923;-78
2022/07/18 08:23:06;;;;;;;;;;;22.30;99.90;;;;;;5133716;27;19973;-79
2022/07/18 08:25:33;;;;;;;;;;;22.40;99.90;;;;;;5133388;27;19974;-78
2022/07/18 08:27:58;;;;;;;;;;;22.30;99.90;;;;;;5116266;28;19924;-78
2022/07/18 08:30:24;;;;;;;;;;;22.30;99.90;;;;;;5133648;27;19945;-77
2022/07/18 08:32:50;;;;;;;;;;;22.40;99.90;;;;;;5133541;27;20343;-78
2022/07/18 08:35:16;;;;;;;;;;;22.40;99.90;;;;;;5116215;28;19982;-78
2022/07/18 08:37:41;;;;;;;;;;;22.50;99.90;;;;;;5132925;27;19924;-78
2022/07/18 08:40:08;;;;;;;;;;;22.60;99.90;;;;;;5099190;28;19931;-78
2022/07/18 08:42:34;;;;;;;;;;;22.80;99.90;;;;;;5099615;28;19923;-78
2022/07/18 08:45:00;;;;;;;;;;;23.00;99.90;;;;;;5115947;28;19923;-78
2022/07/18 08:47:27;;;;;;;;;;;23.10;99.90;;;;;;5099427;28;20303;-78
2022/07/18 08:49:53;;;;;;;;;;;23.20;99.90;;;;;;5116315;28;19930;-78
2022/07/18 08:52:19;;;;;;;;;;;23.30;99.90;;;;;;5133615;28;19927;-78
2022/07/18 08:54:46;;;;;;;;;;;23.40;99.90;;;;;;5115800;28;20385;-78
2022/07/18 08:57:12;;;;;;;;;;;23.50;99.90;;;;;;5132879;28;19970;-78
2022/07/18 08:59:37;;;;;;;;;;;23.60;99.90;;;;;;5116190;28;19924;-78
2022/07/18 09:02:03;;;;;;;;;;;23.80;99.90;;;;;;5098811;28;19924;-78
2022/07/18 09:04:32;;;;;;;;;;;23.90;99.90;;;;;;5133153;28;20351;-78
2022/07/18 09:06:59;;;;;;;;;;;24.10;99.90;;;;;;5115849;28;19923;-78
2022/07/18 09:09:24;;;;;;;;;;;24.20;99.90;;;;;;5116294;28;19924;-78
2022/07/18 09:11:54;;;;;;;;;;;24.40;99.90;;;;;;5116201;28;20423;-78
2022/07/18 09:14:27;;;;;;;;;;;24.50;99.90;;;;;;5136525;27;19923;-78
2022/07/18 09:17:11;;;;;;;;;;;24.60;99.90;;;;;;5119457;27;20013;-79
2022/07/18 09:19:38;;;;;;;;;;;24.70;99.90;;;;;;5119349;27;19923;-78
2022/07/18 09:22:17;;;;;;;;;;;24.80;99.90;;;;;;5136325;27;20021;-78
2022/07/18 09:24:53;;;;;;;;;;;24.80;99.90;;;;;;5119073;27;20312;-78
2022/07/18 09:27:48;;;;;;;;;;;24.90;99.90;;;;;;5119266;27;19931;-78
2022/07/18 09:30:35;;;;;;;;;;;25.10;99.90;;;;;;5118388;27;19962;-78
2022/07/18 09:33:03;;;;;;;;;;;25.30;99.90;;;;;;5136359;27;19923;-79
2022/07/18 09:35:30;;;;;;;;;;;25.50;99.90;;;;;;5119271;27;19933;-78
2022/07/18 09:38:12;;;;;;;;;;;25.50;99.90;;;;;;5136439;27;20355;-78
2022/07/18 09:40:39;;;;;;;;;;;25.50;99.90;;;;;;5136400;27;19923;-77
2022/07/18 09:43:06;;;;;;;;;;;25.60;99.90;;;;;;5136202;27;19972;-78
2022/07/18 09:45:33;;;;;;;;;;;25.60;99.90;;;;;;5136045;27;19967;-78
2022/07/18 09:48:03;;;;;;;;;;;25.70;99.90;;;;;;5135983;27;19923;-78
2022/07/18 09:50:34;;;;;;;;;;;25.70;99.90;;;;;;5138135;27;19935;-78
2022/07/18 09:53:25;;;;;;;;;;;25.90;99.90;;;;;;5139644;27;19927;-78
2022/07/18 09:55:52;;;;;;;;;;;25.90;99.90;;;;;;5122841;27;19923;-78
2022/07/18 09:58:23;;;;;;;;;;;26.10;99.90;;;;;;5122467;27;19931;-78
2022/07/18 10:00:49;;;;;;;;;;;26.20;98.20;;;;;;5139396;27;19927;-78
2022/07/18 10:03:15;;;;;;;;;;;26.40;99.90;;;;;;5122341;27;19923;-78
2022/07/18 10:05:42;;;;;;;;;;;26.60;99.70;;;;;;5139530;27;19927;-78
2022/07/18 10:08:11;;;;;;;;;;;26.70;99.40;;;;;;5122352;27;19923;-78
2022/07/18 10:10:38;;;;;;;;;;;26.80;98.40;;;;;;5122446;27;19926;-78
2022/07/18 10:13:05;;;;;;;;;;;26.80;97.20;;;;;;5138989;27;19940;-78
2022/07/18 10:15:32;;;;;;;;;;;26.80;98.30;;;;;;5139516;27;19923;-78
2022/07/18 10:17:58;;;;;;;;;;;26.80;98.50;;;;;;5122029;27;19923;-78
2022/07/18 10:20:25;;;;;;;;;;;26.90;96.60;;;;;;5122063;27;19923;-78
2022/07/18 10:22:54;;;;;;;;;;;27.00;98.60;;;;;;5122253;27;20403;-78
2022/07/18 10:25:21;;;;;;;;;;;27.00;97.10;;;;;;5138874;27;19929;-78
2022/07/18 10:27:48;;;;;;;;;;;27.10;95.80;;;;;;5139272;27;20332;-78
2022/07/18 10:30:14;;;;;;;;;;;27.20;96.40;;;;;;5138706;27;20371;-78
2022/07/18 10:32:40;;;;;;;;;;;27.30;96.70;;;;;;5139174;27;20374;-78
2022/07/18 10:35:06;;;;;;;;;;;27.40;94.20;;;;;;5121840;27;19923;-79
2022/07/18 10:37:35;;;;;;;;;;;27.40;91.00;;;;;;5139099;27;20014;-77
2022/07/18 10:40:20;;;;;;;;;;;27.40;90.50;;;;;;5121898;27;19923;-78
2022/07/18 10:42:45;;;;;;;;;;;27.50;91.80;;;;;;5121564;27;19972;-80
2022/07/18 10:45:40;;;;;;;;;;;27.80;92.00;;;;;;5121397;27;19927;-79
2022/07/18 10:48:25;;;;;;;;;;;27.80;90.50;;;;;;5120784;27;19968;-85
2022/07/18 10:51:20;;;;;;;;;;;28.10;91.70;;;;;;5138827;27;19974;-78
2022/07/18 10:53:58;;;;;;;;;;;28.20;90.50;;;;;;5121207;27;19930;-78
2022/07/18 10:56:35;;;;;;;;;;;28.40;86.30;;;;;;5138529;27;19923;-78
2022/07/18 10:59:21;;;;;;;;;;;28.50;90.90;;;;;;5138650;27;19930;-78
2022/07/18 11:01:48;;;;;;;;;;;28.60;89.40;;;;;;5138115;27;19972;-79
2022/07/18 11:04:26;;;;;;;;;;;28.90;88.30;;;;;;5137986;27;19972;-78
2022/07/18 11:06:55;;;;;;;;;;;29.10;85.00;;;;;;5121301;27;19923;-78
2022/07/18 11:09:38;;;;;;;;;;;29.20;81.60;;;;;;5121188;27;19945;-78
2022/07/18 11:12:16;;;;;;;;;;;29.40;81.80;;;;;;5138176;27;20021;-78
2022/07/18 11:15:02;;;;;;;;;;;29.50;80.20;;;;;;5138339;27;19923;-78
2022/07/18 11:17:46;;;;;;;;;;;29.50;83.00;;;;;;5120985;27;19931;-78
2022/07/18 11:20:24;;;;;;;;;;;29.60;80.60;;;;;;5138157;27;19980;-78
2022/07/18 11:22:50;;;;;;;;;;;29.60;80.50;;;;;;5120997;27;19938;-78
2022/07/18 11:25:18;;;;;;;;;;;29.60;79.00;;;;;;5120601;27;19930;-78
2022/07/18 11:27:44;;;;;;;;;;;29.50;73.20;;;;;;5138124;27;19984;-78
2022/07/18 11:30:15;;;;;;;;;;;29.60;78.70;;;;;;5137871;27;20008;-84
2022/07/18 11:32:41;;;;;;;;;;;29.60;76.90;;;;;;5138082;27;20355;-78
2022/07/18 11:35:08;;;;;;;;;;;29.80;75.30;;;;;;5137670;27;19923;-78
2022/07/18 11:37:33;;;;;;;;;;;30.00;78.20;;;;;;5120583;27;20347;-78
2022/07/18 11:40:06;;;;;;;;;;;30.10;74.30;;;;;;5137811;27;19972;-78
2022/07/18 11:42:36;;;;;;;;;;;29.70;74.40;;;;;;5120498;27;19934;-78
2022/07/18 11:45:02;;;;;;;;;;;29.60;80.10;;;;;;5120121;27;20367;-78
2022/07/18 11:47:28;;;;;;;;;;;29.60;81.50;;;;;;5103326;27;19927;-78
2022/07/18 11:49:54;;;;;;;;;;;29.70;78.00;;;;;;5120527;27;19933;-78
2022/07/18 11:52:19;;;;;;;;;;;29.70;80.90;;;;;;5137411;27;19927;-78
2022/07/18 11:54:45;;;;;;;;;;;29.70;77.30;;;;;;5137481;27;19945;-78
2022/07/18 11:57:11;;;;;;;;;;;29.60;73.70;;;;;;5120463;27;19923;-78
2022/07/18 11:59:37;;;;;;;;;;;29.60;77.70;;;;;;5120154;27;19923;-78
2022/07/18 12:02:03;;;;;;;;;;;29.90;76.40;;;;;;5137440;27;20029;-78
2022/07/18 12:04:29;;;;;;;;;;;29.90;79.90;;;;;;5119926;27;20023;-78
2022/07/18 12:07:13;;;;;;;;;;;30.00;80.70;;;;;;5103436;27;20023;-78
2022/07/18 12:09:39;;;;;;;;;;;30.30;80.90;;;;;;5137156;27;20240;-78
2022/07/18 12:12:11;;;;;;;;;;;30.70;76.50;;;;;;5136474;27;19923;-79
2022/07/18 12:14:38;;;;;;;;;;;31.00;76.20;;;;;;5137133;27;20282;-78
2022/07/18 12:17:04;;;;;;;;;;;31.30;73.10;;;;;;5120032;27;20274;-78
2022/07/18 12:19:34;;;;;;;;;;;31.40;75.80;;;;;;5137070;27;19923;-78
2022/07/18 12:22:03;;;;;;;;;;;31.50;70.60;;;;;;5137140;27;19922;-79
2022/07/18 12:24:33;;;;;;;;;;;31.70;65.00;;;;;;5119690;27;19930;-79
2022/07/18 12:27:13;;;;;;;;;;;31.80;65.60;;;;;;5137114;27;20095;-78
2022/07/18 12:29:54;;;;;;;;;;;32.20;65.20;;;;;;5136823;27;20278;-79
2022/07/18 12:32:23;;;;;;;;;;;32.60;62.90;;;;;;5136827;27;19934;-78
2022/07/18 12:35:01;;;;;;;;;;;32.70;63.90;;;;;;5119561;27;19930;-80
2022/07/18 12:37:29;;;;;;;;;;;32.60;58.10;;;;;;5119617;27;20015;-78
2022/07/18 12:39:59;;;;;;;;;;;32.30;59.40;;;;;;5119877;27;20018;-78
2022/07/18 12:42:32;;;;;;;;;;;32.40;60.70;;;;;;5119708;27;19923;-78
2022/07/18 12:44:57;;;;;;;;;;;32.20;56.30;;;;;;5136689;27;19923;-78
2022/07/18 12:47:23;;;;;;;;;;;32.10;59.40;;;;;;5136718;27;20412;-79
2022/07/18 12:49:49;;;;;;;;;;;32.30;60.60;;;;;;5136859;27;19935;-79
2022/07/18 12:52:14;;;;;;;;;;;32.50;61.00;;;;;;5119682;27;19974;-79
2022/07/18 12:54:40;;;;;;;;;;;32.60;60.10;;;;;;5136301;27;19927;-79
2022/07/18 12:57:05;;;;;;;;;;;32.70;61.40;;;;;;5136796;27;19930;-78
2022/07/18 12:59:31;;;;;;;;;;;32.60;59.80;;;;;;5119390;27;19980;-79
2022/07/18 13:01:56;;;;;;;;;;;32.60;61.80;;;;;;5119625;27;19946;-79
2022/07/18 13:04:22;;;;;;;;;;;32.60;59.20;;;;;;5136446;27;20029;-79
2022/07/18 13:06:47;;;;;;;;;;;32.70;61.00;;;;;;5136794;27;19954;-79
2022/07/18 13:09:13;;;;;;;;;;;33.20;61.70;;;;;;5119597;27;20022;-79
2022/07/18 13:11:40;;;;;;;;;;;33.60;57.80;;;;;;5119384;27;20364;-79
2022/07/18 13:14:06;;;;;;;;;;;33.90;57.50;;;;;;5119321;27;20049;-79
2022/07/18 13:16:32;;;;;;;;;;;33.70;55.70;;;;;;5119359;27;19946;-79
2022/07/18 13:18:57;;;;;;;;;;;34.00;58.30;;;;;;5136614;27;20355;-79
2022/07/18 13:21:23;;;;;;;;;;;34.10;54.40;;;;;;5118899;27;19970;-81
2022/07/18 13:23:48;;;;;;;;;;;34.10;56.70;;;;;;5120458;27;19927;-79
2022/07/18 13:26:14;;;;;;;;;;;33.50;56.40;;;;;;5140211;27;20386;-79
2022/07/18 13:28:40;;;;;;;;;;;33.30;57.00;;;;;;5140228;27;19992;-79
2022/07/18 13:31:05;;;;;;;;;;;33.00;56.70;;;;;;5123216;27;19923;-78
2022/07/18 13:33:31;;;;;;;;;;;32.70;58.90;;;;;;5123086;27;19923;-79
2022/07/18 13:35:56;;;;;;;;;;;32.40;58.50;;;;;;5123108;27;19979;-79
2022/07/18 13:38:22;;;;;;;;;;;32.60;58.00;;;;;;5123192;27;19923;-78
2022/07/18 13:40:47;;;;;;;;;;;32.60;59.80;;;;;;5122708;27;20442;-79
2022/07/18 13:43:13;;;;;;;;;;;32.80;61.50;;;;;;5140283;27;19923;-79
2022/07/18 13:45:39;;;;;;;;;;;32.90;59.10;;;;;;5122382;27;20390;-79
2022/07/18 13:48:05;;;;;;;;;;;32.90;55.90;;;;;;5140000;27;19923;-79
2022/07/18 13:50:30;;;;;;;;;;;32.90;57.70;;;;;;5139995;27;19973;-79
2022/07/18 13:52:56;;;;;;;;;;;32.90;59.20;;;;;;5139955;27;20251;-79
2022/07/18 13:55:22;;;;;;;;;;;32.90;63.60;;;;;;5122411;27;19927;-79
2022/07/18 13:57:48;;;;;;;;;;;33.00;65.00;;;;;;5139710;27;19970;-79
2022/07/18 14:00:14;;;;;;;;;;;33.40;56.90;;;;;;5139775;27;19977;-79
2022/07/18 14:02:39;;;;;;;;;;;33.80;60.30;;;;;;5105420;27;19931;-79
2022/07/18 14:05:05;;;;;;;;;;;34.50;57.20;;;;;;5122420;27;19929;-79
2022/07/18 14:07:31;;;;;;;;;;;35.10;55.10;;;;;;5139568;27;19923;-80
2022/07/18 14:09:56;;;;;;;;;;;35.70;51.50;;;;;;5139702;27;20022;-79
2022/07/18 14:12:22;;;;;;;;;;;35.80;51.80;;;;;;5139038;27;19923;-79
2022/07/18 14:14:47;;;;;;;;;;;36.00;53.50;;;;;;5139391;27;19930;-80
2022/07/18 14:17:13;;;;;;;;;;;36.30;54.80;;;;;;5122073;27;19930;-79
2022/07/18 14:19:38;;;;;;;;;;;37.00;53.50;;;;;;5122168;27;19927;-79